Time;durP1;ratioP1;P1;durP2;ratioP2;P2;SDS_P1;SDS_P2;PMS_P1;PMS_P2;Temp;Humidity;BMP_temperature;BMP_pressure;BME280_temperature;BME280_humidity;BME280_pressure;Samples;Min_cycle;Max_cycle;Signal;HPM_P1;HPM_P2
2023/11/30 00:02:04;;;;;;;14.23;4.43;;;13.00;78.90;;;;;;5121538;28;20046;-89
2023/11/30 00:04:29;;;;;;;9.48;3.70;;;13.00;78.90;;;;;;5110956;28;20043;-89
2023/11/30 00:06:55;;;;;;;15.50;3.88;;;13.00;78.90;;;;;;5111531;28;20039;-90
2023/11/30 00:09:21;;;;;;;14.52;3.65;;;13.00;79.20;;;;;;5103055;28;20498;-88
2023/11/30 00:11:47;;;;;;;10.73;3.88;;;13.00;79.30;;;;;;5109451;28;20034;-88
2023/11/30 00:14:12;;;;;;;10.75;3.53;;;13.00;79.30;;;;;;5114667;28;20028;-88
2023/11/30 00:16:38;;;;;;;14.90;4.03;;;12.90;79.30;;;;;;5117979;28;20051;-88
2023/11/30 00:19:04;;;;;;;9.18;3.65;;;12.90;79.60;;;;;;5128487;28;20011;-89
2023/11/30 00:21:29;;;;;;;10.57;3.70;;;12.90;79.50;;;;;;5110662;28;20016;-87
2023/11/30 00:23:55;;;;;;;15.43;3.67;;;12.90;79.50;;;;;;5111890;28;20091;-88
2023/11/30 00:26:21;;;;;;;12.55;3.83;;;13.00;79.70;;;;;;5093173;28;20084;-89
2023/11/30 00:28:46;;;;;;;15.73;3.80;;;13.00;79.60;;;;;;5097575;28;20023;-87
2023/11/30 00:31:12;;;;;;;10.23;3.30;;;13.00;79.70;;;;;;5092784;28;20028;-89
2023/11/30 00:33:37;;;;;;;11.50;3.28;;;13.00;79.70;;;;;;5093763;28;20029;-88
2023/11/30 00:36:07;;;;;;;9.82;3.45;;;13.00;79.80;;;;;;5093804;28;20076;-87
2023/11/30 00:38:33;;;;;;;14.02;3.80;;;13.00;80.00;;;;;;5099231;28;20031;-89
2023/11/30 00:40:58;;;;;;;13.05;3.67;;;13.00;79.70;;;;;;5098167;28;20049;-88
2023/11/30 00:43:24;;;;;;;13.73;3.95;;;13.00;79.90;;;;;;5110187;28;20029;-87
2023/11/30 00:45:50;;;;;;;14.23;3.92;;;13.00;79.90;;;;;;5093389;28;20085;-88
2023/11/30 00:48:15;;;;;;;11.68;3.67;;;12.90;79.90;;;;;;5087079;28;20102;-88
2023/11/30 00:50:41;;;;;;;12.65;3.10;;;12.90;79.80;;;;;;5085482;28;20039;-88
2023/11/30 00:53:07;;;;;;;10.27;3.30;;;13.00;80.10;;;;;;5083315;28;20028;-87
2023/11/30 00:55:32;;;;;;;11.32;3.08;;;13.00;79.90;;;;;;5084646;28;20186;-87
2023/11/30 00:57:58;;;;;;;15.90;3.38;;;13.00;79.90;;;;;;5089688;28;20056;-87
2023/11/30 01:00:24;;;;;;;14.25;3.65;;;13.00;79.90;;;;;;5084788;28;20222;-87
2023/11/30 01:02:49;;;;;;;6.97;3.10;;;13.00;80.00;;;;;;5086397;28;20097;-87
2023/11/30 01:05:15;;;;;;;15.48;2.83;;;13.00;79.80;;;;;;5082537;28;20186;-87
2023/11/30 01:07:41;;;;;;;9.55;3.03;;;13.00;79.90;;;;;;5082790;28;20059;-87
2023/11/30 01:10:07;;;;;;;11.00;2.83;;;13.00;80.00;;;;;;5085299;28;20027;-86
2023/11/30 01:12:33;;;;;;;11.57;2.80;;;13.00;79.90;;;;;;5087363;28;20035;-87
2023/11/30 01:14:59;;;;;;;10.82;2.78;;;12.90;79.80;;;;;;5086782;28;20028;-86
2023/11/30 01:17:25;;;;;;;11.93;3.10;;;12.90;79.80;;;;;;5089654;28;20025;-86
2023/11/30 01:19:51;;;;;;;14.90;2.85;;;12.90;79.90;;;;;;5093104;28;20053;-86
2023/11/30 01:22:16;;;;;;;15.02;2.60;;;12.90;79.90;;;;;;5089776;28;20029;-87
2023/11/30 01:24:42;;;;;;;8.65;2.45;;;12.90;80.00;;;;;;5087449;28;20038;-87
2023/11/30 01:27:08;;;;;;;10.43;2.83;;;12.90;79.90;;;;;;5087776;28;20032;-88
2023/11/30 01:29:33;;;;;;;8.63;2.50;;;12.90;80.00;;;;;;5088883;28;20394;-87
2023/11/30 01:31:59;;;;;;;10.65;2.42;;;12.90;80.00;;;;;;5091538;28;20036;-88
2023/11/30 01:34:25;;;;;;;8.45;2.50;;;12.90;80.10;;;;;;5094011;28;20029;-87
2023/11/30 01:36:51;;;;;;;11.27;2.78;;;12.90;80.20;;;;;;5092403;28;20029;-88
2023/11/30 01:39:17;;;;;;;7.90;2.53;;;12.90;80.10;;;;;;5089829;28;20020;-88
2023/11/30 01:41:43;;;;;;;11.15;2.60;;;12.90;80.30;;;;;;5089789;28;20028;-88
2023/11/30 01:44:10;;;;;;;19.30;3.10;;;12.90;80.20;;;;;;5089859;28;20462;-86
2023/11/30 01:46:39;;;;;;;9.32;2.75;;;12.90;80.80;;;;;;5090715;28;20045;-88
2023/11/30 01:49:06;;;;;;;9.75;3.15;;;13.00;80.50;;;;;;5089031;28;20027;-87
2023/11/30 01:51:35;;;;;;;9.65;3.05;;;13.00;80.40;;;;;;5091080;28;20151;-88
2023/11/30 01:54:02;;;;;;;7.63;2.20;;;13.00;80.40;;;;;;5089140;28;20110;-85
2023/11/30 01:56:29;;;;;;;7.20;2.70;;;13.00;80.40;;;;;;5087498;28;20103;-87
2023/11/30 01:58:56;;;;;;;10.88;3.30;;;13.10;80.40;;;;;;5086739;28;20031;-88
2023/11/30 02:01:24;;;;;;;8.82;2.70;;;13.10;80.60;;;;;;5090111;28;20024;-87
2023/11/30 02:03:51;;;;;;;12.43;2.70;;;13.10;80.40;;;;;;5089314;28;20039;-88
2023/11/30 02:06:18;;;;;;;11.75;3.97;;;13.10;80.30;;;;;;5090541;28;20036;-87
2023/11/30 02:08:47;;;;;;;12.98;3.90;;;13.10;80.50;;;;;;5090489;28;20591;-88
2023/11/30 02:11:13;;;;;;;9.70;3.40;;;13.10;80.70;;;;;;5090222;28;20046;-73
2023/11/30 02:13:39;;;;;;;13.07;2.75;;;13.10;80.80;;;;;;5094049;28;20052;-89
2023/11/30 02:16:05;;;;;;;7.18;2.05;;;13.00;80.90;;;;;;5094337;28;20029;-89
2023/11/30 02:18:31;;;;;;;9.13;2.33;;;13.00;81.00;;;;;;5091043;28;20074;-89
2023/11/30 02:20:57;;;;;;;10.15;2.72;;;13.00;81.10;;;;;;5089978;28;20028;-86
2023/11/30 02:23:23;;;;;;;9.90;3.22;;;13.00;81.10;;;;;;5087540;28;20486;-86
2023/11/30 02:25:48;;;;;;;9.43;2.78;;;13.00;81.00;;;;;;5085182;28;20088;-87
2023/11/30 02:28:20;;;;;;;10.02;3.45;;;13.00;81.00;;;;;;5085706;28;20036;-87
2023/11/30 02:30:46;;;;;;;13.23;3.20;;;13.00;81.10;;;;;;5088657;28;20032;-86
2023/11/30 02:33:13;;;;;;;14.45;3.60;;;12.90;81.30;;;;;;5085912;28;20054;-88
2023/11/30 02:35:39;;;;;;;18.02;3.75;;;12.90;81.40;;;;;;5088558;28;20032;-86
2023/11/30 02:38:05;;;;;;;10.73;3.17;;;12.90;81.50;;;;;;5086719;28;20040;-87
2023/11/30 02:40:30;;;;;;;12.75;4.15;;;12.90;81.60;;;;;;5084708;28;20036;-87
2023/11/30 02:42:56;;;;;;;11.20;3.25;;;12.80;81.50;;;;;;5085694;28;20028;-86
2023/11/30 02:45:22;;;;;;;13.30;3.30;;;12.90;81.80;;;;;;5082639;28;20044;-88
2023/11/30 02:47:47;;;;;;;8.73;2.90;;;12.80;81.80;;;;;;5082838;28;20056;-87
2023/11/30 02:50:13;;;;;;;8.57;2.90;;;12.90;81.80;;;;;;5084202;28;20108;-88
2023/11/30 02:52:39;;;;;;;8.35;3.17;;;12.90;81.80;;;;;;5091583;28;20639;-89
2023/11/30 02:55:05;;;;;;;12.20;3.35;;;12.90;81.80;;;;;;5087776;28;20545;-87
2023/11/30 02:57:31;;;;;;;16.92;3.50;;;12.90;81.80;;;;;;5095252;28;20048;-87
2023/11/30 02:59:56;;;;;;;9.43;2.78;;;12.90;81.80;;;;;;5086642;28;20043;-88
2023/11/30 03:02:22;;;;;;;8.15;3.00;;;12.90;81.80;;;;;;5088767;28;20056;-87
2023/11/30 03:04:48;;;;;;;8.82;2.95;;;12.90;82.00;;;;;;5085076;28;20027;-87
2023/11/30 03:07:13;;;;;;;8.77;3.00;;;12.90;81.90;;;;;;5085967;28;20036;-87
2023/11/30 03:09:39;;;;;;;9.82;2.92;;;12.90;81.80;;;;;;5088572;28;20024;-85
2023/11/30 03:12:05;;;;;;;7.13;2.92;;;12.90;81.80;;;;;;5089584;28;20025;-87
2023/11/30 03:14:31;;;;;;;15.95;3.40;;;12.90;81.80;;;;;;5088517;28;20027;-86
2023/11/30 03:16:57;;;;;;;8.50;3.00;;;12.90;82.00;;;;;;5086524;28;20445;-87
2023/11/30 03:19:22;;;;;;;7.85;2.67;;;12.90;82.10;;;;;;5084948;28;20053;-87
2023/11/30 03:21:52;;;;;;;12.40;2.83;;;12.90;82.20;;;;;;5087482;28;20028;-86
2023/11/30 03:24:19;;;;;;;11.57;2.78;;;12.90;82.10;;;;;;5087375;28;20020;-87
2023/11/30 03:26:45;;;;;;;10.98;2.90;;;12.90;82.10;;;;;;5084952;28;20082;-87
2023/11/30 03:29:11;;;;;;;9.15;2.22;;;12.90;82.10;;;;;;5084622;28;20036;-87
2023/11/30 03:31:37;;;;;;;9.15;2.35;;;13.00;82.40;;;;;;5084257;28;20029;-88
2023/11/30 03:34:03;;;;;;;9.15;2.60;;;13.00;82.20;;;;;;5083600;28;20032;-87
2023/11/30 03:36:28;;;;;;;8.30;2.85;;;13.10;82.40;;;;;;5080358;28;20556;-87
2023/11/30 03:38:55;;;;;;;7.70;2.35;;;13.10;82.40;;;;;;5080205;28;20090;-86
2023/11/30 03:41:24;;;;;;;7.10;2.25;;;13.20;82.50;;;;;;5081098;28;20062;-87
2023/11/30 03:43:51;;;;;;;7.22;2.33;;;13.30;82.60;;;;;;5083156;28;20059;-85
2023/11/30 03:46:17;;;;;;;9.75;2.40;;;13.40;82.60;;;;;;5082991;28;20036;-86
2023/11/30 03:48:43;;;;;;;6.75;1.92;;;13.40;82.50;;;;;;5088823;28;20051;-88
2023/11/30 03:51:09;;;;;;;7.25;1.77;;;13.50;82.60;;;;;;5094264;28;20024;-88
2023/11/30 03:53:35;;;;;;;11.75;2.65;;;13.50;82.70;;;;;;5092621;28;20020;-86
2023/11/30 03:56:00;;;;;;;9.82;2.00;;;13.60;82.90;;;;;;5086846;28;20031;-87
2023/11/30 03:58:26;;;;;;;10.65;2.00;;;13.60;82.80;;;;;;5083204;28;20029;-87
2023/11/30 04:00:52;;;;;;;8.82;2.45;;;13.60;83.00;;;;;;5087781;28;20073;-89
2023/11/30 04:03:17;;;;;;;11.52;2.65;;;13.70;83.00;;;;;;5087047;28;20045;-88
2023/11/30 04:05:43;;;;;;;9.93;2.95;;;13.60;82.90;;;;;;5084228;28;20390;-88
2023/11/30 04:08:09;;;;;;;9.77;2.60;;;13.70;82.90;;;;;;5093356;28;20028;-87
2023/11/30 04:10:34;;;;;;;11.57;2.95;;;13.60;82.90;;;;;;5095453;28;20020;-87
2023/11/30 04:13:00;;;;;;;8.35;2.75;;;13.60;82.90;;;;;;5094748;28;20438;-87
2023/11/30 04:15:26;;;;;;;9.73;2.60;;;13.60;82.70;;;;;;5090906;28;20044;-88
2023/11/30 04:17:52;;;;;;;11.02;2.08;;;13.60;82.90;;;;;;5084973;28;20028;-88
2023/11/30 04:20:17;;;;;;;12.93;2.90;;;13.60;82.90;;;;;;5084994;28;20477;-87
2023/11/30 04:22:43;;;;;;;11.65;2.45;;;13.60;82.80;;;;;;5084705;28;20108;-87
2023/11/30 04:25:09;;;;;;;8.30;2.30;;;13.70;83.00;;;;;;5086517;28;20500;-87
2023/11/30 04:27:35;;;;;;;14.30;2.53;;;13.70;83.00;;;;;;5082586;28;20036;-87
2023/11/30 04:30:02;;;;;;;12.50;2.22;;;13.80;83.10;;;;;;5098784;28;20019;-87
2023/11/30 04:32:27;;;;;;;7.57;2.20;;;13.90;83.00;;;;;;5098558;28;20015;-86
2023/11/30 04:34:53;;;;;;;10.00;2.17;;;13.90;83.00;;;;;;5088375;28;20020;-86
2023/11/30 04:37:19;;;;;;;11.20;1.85;;;14.10;83.20;;;;;;5086183;28;20082;-86
2023/11/30 04:39:44;;;;;;;7.57;2.22;;;14.20;83.10;;;;;;5084240;28;20039;-87
2023/11/30 04:42:10;;;;;;;8.95;2.17;;;14.20;83.00;;;;;;5085025;28;20032;-86
2023/11/30 04:44:36;;;;;;;8.95;1.80;;;14.30;82.90;;;;;;5081513;28;20035;-88
2023/11/30 04:47:02;;;;;;;12.45;1.70;;;14.30;83.00;;;;;;5078892;28;20127;-87
2023/11/30 04:49:27;;;;;;;7.68;2.05;;;14.30;82.80;;;;;;5081209;28;20024;-87
2023/11/30 04:51:53;;;;;;;10.68;2.08;;;14.40;82.90;;;;;;5078702;28;20024;-86
2023/11/30 04:54:19;;;;;;;8.27;1.73;;;14.40;82.90;;;;;;5079811;28;20112;-86
2023/11/30 04:56:44;;;;;;;7.45;1.85;;;14.50;82.80;;;;;;5078735;28;20021;-87
2023/11/30 04:59:10;;;;;;;15.25;2.15;;;14.50;82.70;;;;;;5079134;28;20040;-87
2023/11/30 05:01:36;;;;;;;10.00;1.90;;;14.50;82.70;;;;;;5077346;28;20024;-87
2023/11/30 05:04:02;;;;;;;8.43;1.75;;;14.50;82.60;;;;;;5078103;28;20442;-86
2023/11/30 05:06:28;;;;;;;12.23;1.92;;;14.50;82.60;;;;;;5078791;28;20433;-86
2023/11/30 05:08:53;;;;;;;8.35;2.15;;;14.60;82.70;;;;;;5077142;28;20028;-87
2023/11/30 05:11:19;;;;;;;9.02;2.15;;;14.60;82.60;;;;;;5078495;28;20415;-87
2023/11/30 05:13:45;;;;;;;6.18;1.80;;;14.60;82.60;;;;;;5076364;28;20498;-88
2023/11/30 05:16:11;;;;;;;11.50;2.22;;;14.60;82.70;;;;;;5077500;28;20039;-87
2023/11/30 05:18:36;;;;;;;5.13;1.63;;;14.60;82.80;;;;;;5076950;28;20484;-87
2023/11/30 05:21:03;;;;;;;8.63;1.98;;;14.60;82.80;;;;;;5076287;28;20028;-86
2023/11/30 05:23:28;;;;;;;6.75;1.83;;;14.60;83.10;;;;;;5076391;28;20023;-87
2023/11/30 05:25:54;;;;;;;12.18;2.25;;;14.60;82.90;;;;;;5077259;28;20032;-88
2023/11/30 05:28:20;;;;;;;10.00;1.80;;;14.60;83.10;;;;;;5078473;28;20029;-87
2023/11/30 05:30:45;;;;;;;7.68;1.65;;;14.60;83.10;;;;;;5097355;28;20100;-86
2023/11/30 05:33:11;;;;;;;8.32;1.80;;;14.60;83.20;;;;;;5101480;28;20021;-86
2023/11/30 05:35:38;;;;;;;12.15;2.17;;;14.60;83.30;;;;;;5097122;28;20337;-88
2023/11/30 05:38:04;;;;;;;6.72;1.58;;;14.60;83.30;;;;;;5096937;28;20077;-87
2023/11/30 05:40:30;;;;;;;6.55;1.83;;;14.60;83.50;;;;;;5102096;28;20021;-87
2023/11/30 05:42:55;;;;;;;10.75;2.03;;;14.60;83.50;;;;;;5104961;28;20020;-87
2023/11/30 05:45:21;;;;;;;6.63;2.17;;;14.60;83.70;;;;;;5112747;28;20076;-87
2023/11/30 05:47:46;;;;;;;8.30;2.20;;;14.60;83.70;;;;;;5113742;28;20032;-88
2023/11/30 05:50:12;;;;;;;8.20;2.20;;;14.60;83.90;;;;;;5103327;28;20127;-88
2023/11/30 05:52:38;;;;;;;9.23;1.88;;;14.60;84.10;;;;;;5099189;28;20016;-86
2023/11/30 05:55:08;;;;;;;10.13;2.33;;;14.60;84.40;;;;;;5100972;28;20024;-86
2023/11/30 05:57:35;;;;;;;14.13;2.10;;;14.60;84.50;;;;;;5098284;28;20440;-85
2023/11/30 06:00:03;;;;;;;9.20;2.00;;;14.60;84.70;;;;;;5096104;28;20091;-88
2023/11/30 06:02:29;;;;;;;7.47;2.28;;;14.60;85.00;;;;;;5098196;28;20473;-88
2023/11/30 06:04:55;;;;;;;7.72;2.20;;;14.60;85.30;;;;;;5095549;28;20024;-87
2023/11/30 06:07:23;;;;;;;11.07;2.58;;;14.60;85.70;;;;;;5095551;28;20036;-89
2023/11/30 06:09:49;;;;;;;7.68;1.88;;;14.60;86.10;;;;;;5093250;28;20168;-87
2023/11/30 06:12:15;;;;;;;9.57;2.28;;;14.50;86.30;;;;;;5095384;28;20544;-87
2023/11/30 06:14:41;;;;;;;10.93;2.38;;;14.60;86.80;;;;;;5094613;28;20055;-87
2023/11/30 06:17:06;;;;;;;8.88;2.17;;;14.60;86.80;;;;;;5095579;28;20028;-86
2023/11/30 06:19:32;;;;;;;8.48;2.50;;;14.60;87.30;;;;;;5095808;28;20114;-87
2023/11/30 06:22:00;;;;;;;11.80;2.42;;;14.50;87.40;;;;;;5095041;28;20116;-86
2023/11/30 06:24:26;;;;;;;13.23;2.53;;;14.50;88.10;;;;;;5094924;28;20568;-85
2023/11/30 06:26:52;;;;;;;9.48;2.15;;;14.50;88.20;;;;;;5094828;28;20043;-88
2023/11/30 06:29:19;;;;;;;10.75;2.47;;;14.50;88.70;;;;;;5094645;28;20025;-87
2023/11/30 06:31:45;;;;;;;11.10;2.30;;;14.50;88.80;;;;;;5094916;28;20028;-87
2023/11/30 06:34:10;;;;;;;9.13;2.25;;;14.50;89.00;;;;;;5095414;28;20039;-87
2023/11/30 06:36:36;;;;;;;8.82;2.30;;;14.50;89.30;;;;;;5095679;28;20028;-87
2023/11/30 06:39:03;;;;;;;12.77;2.58;;;14.50;89.50;;;;;;5096036;28;20050;-88
2023/11/30 06:41:28;;;;;;;7.97;2.15;;;14.50;89.70;;;;;;5097974;28;20035;-86
2023/11/30 06:43:55;;;;;;;7.38;2.13;;;14.50;90.10;;;;;;5098402;28;20028;-89
2023/11/30 06:46:22;;;;;;;13.15;2.83;;;14.50;90.20;;;;;;5097077;28;20020;-87
2023/11/30 06:48:49;;;;;;;9.32;2.17;;;14.60;90.40;;;;;;5093970;28;20024;-83
2023/11/30 06:51:15;;;;;;;12.45;2.50;;;14.60;90.40;;;;;;5092809;28;20574;-79
2023/11/30 06:53:41;;;;;;;7.53;2.30;;;14.60;90.50;;;;;;5090927;28;20028;-80
2023/11/30 06:56:10;;;;;;;11.65;2.72;;;14.60;90.50;;;;;;5081386;28;20103;-80
2023/11/30 06:58:35;;;;;;;10.25;2.22;;;14.70;90.60;;;;;;5087728;28;20055;-81
2023/11/30 07:01:01;;;;;;;15.60;2.70;;;14.70;90.70;;;;;;5091112;28;20020;-82
2023/11/30 07:03:28;;;;;;;9.00;2.55;;;14.70;90.80;;;;;;5091385;28;20498;-81
2023/11/30 07:05:54;;;;;;;8.18;2.30;;;14.70;90.90;;;;;;5083897;28;20024;-84
2023/11/30 07:08:20;;;;;;;9.82;2.35;;;14.70;91.00;;;;;;5094413;28;20043;-83
2023/11/30 07:10:46;;;;;;;12.70;3.08;;;14.80;91.00;;;;;;5090026;28;20463;-83
2023/11/30 07:13:12;;;;;;;10.70;2.33;;;14.80;91.10;;;;;;5075117;28;20098;-78
2023/11/30 07:15:37;;;;;;;10.02;2.50;;;14.80;91.20;;;;;;5072645;28;20071;-77
2023/11/30 07:18:03;;;;;;;11.90;2.63;;;14.90;91.20;;;;;;5072170;28;20028;-79
2023/11/30 07:20:29;;;;;;;9.77;2.63;;;14.90;91.30;;;;;;5072250;28;20020;-79
2023/11/30 07:22:56;;;;;;;11.10;2.78;;;14.90;91.30;;;;;;5072317;28;20436;-79
2023/11/30 07:25:22;;;;;;;13.25;2.85;;;14.90;91.40;;;;;;5071949;28;20027;-80
2023/11/30 07:27:49;;;;;;;8.73;2.08;;;14.90;91.40;;;;;;5071842;28;20045;-77
2023/11/30 07:30:15;;;;;;;9.68;2.20;;;14.90;91.50;;;;;;5072177;28;20020;-78
2023/11/30 07:32:42;;;;;;;10.38;2.40;;;14.90;91.60;;;;;;5070966;28;20448;-78
2023/11/30 07:35:08;;;;;;;10.77;2.90;;;15.00;92.00;;;;;;5072388;28;20028;-78
2023/11/30 07:37:34;;;;;;;9.50;2.65;;;15.00;91.80;;;;;;5072683;28;20025;-78
2023/11/30 07:40:00;;;;;;;9.25;2.15;;;15.10;91.80;;;;;;5072417;28;20036;-81
2023/11/30 07:42:26;;;;;;;8.07;2.97;;;15.10;91.90;;;;;;5075069;28;20474;-83
2023/11/30 07:44:51;;;;;;;11.40;2.47;;;15.10;92.00;;;;;;5074398;28;20065;-78
2023/11/30 07:47:18;;;;;;;10.50;2.90;;;15.20;92.10;;;;;;5072099;28;20123;-76
2023/11/30 07:49:47;;;;;;;15.13;2.90;;;15.30;92.10;;;;;;5070957;28;20028;-75
2023/11/30 07:52:13;;;;;;;9.55;3.15;;;15.30;92.20;;;;;;5071280;28;20035;-74
2023/11/30 07:54:39;;;;;;;13.00;2.58;;;15.40;92.30;;;;;;5071302;28;20021;-73
2023/11/30 07:57:05;;;;;;;12.57;3.33;;;15.50;92.30;;;;;;5072083;28;20040;-77
2023/11/30 07:59:31;;;;;;;13.40;3.10;;;15.60;92.40;;;;;;5072195;28;20017;-77
2023/11/30 08:01:57;;;;;;;15.45;3.15;;;15.60;92.30;;;;;;5070749;28;20090;-78
2023/11/30 08:04:23;;;;;;;15.32;3.05;;;15.60;92.40;;;;;;5091572;28;20419;-77
2023/11/30 08:06:48;;;;;;;9.52;2.40;;;15.70;92.40;;;;;;5091536;28;20584;-76
2023/11/30 08:09:14;;;;;;;12.82;2.75;;;15.80;92.40;;;;;;5091506;28;20057;-75
2023/11/30 08:11:41;;;;;;;14.02;3.10;;;15.80;92.50;;;;;;5091586;28;20152;-75
2023/11/30 08:14:08;;;;;;;9.75;2.70;;;15.80;92.50;;;;;;5091651;28;20467;-76
2023/11/30 08:16:34;;;;;;;17.85;3.30;;;15.80;92.50;;;;;;5091717;28;20052;-75
2023/11/30 08:19:00;;;;;;;16.17;3.55;;;15.80;92.60;;;;;;5091629;28;20020;-76
2023/11/30 08:21:27;;;;;;;13.50;3.10;;;15.80;92.80;;;;;;5091644;28;20035;-76
2023/11/30 08:23:53;;;;;;;11.65;3.42;;;15.80;92.90;;;;;;5091246;28;20024;-77
2023/11/30 08:26:20;;;;;;;17.60;3.20;;;15.70;93.10;;;;;;5091442;28;20024;-77
2023/11/30 08:28:46;;;;;;;13.25;3.55;;;15.70;93.20;;;;;;5091329;28;20539;-77
2023/11/30 08:31:12;;;;;;;17.42;3.63;;;15.60;93.30;;;;;;5091786;28;20020;-76
2023/11/30 08:33:38;;;;;;;12.00;3.85;;;15.70;93.40;;;;;;5089937;28;20032;-77
2023/11/30 08:36:05;;;;;;;12.35;3.03;;;15.60;93.60;;;;;;5091228;28;20465;-74
2023/11/30 08:38:32;;;;;;;11.38;3.17;;;15.60;93.80;;;;;;5091515;28;20129;-77
2023/11/30 08:40:58;;;;;;;10.85;2.67;;;15.60;93.90;;;;;;5091448;28;20334;-76
2023/11/30 08:43:24;;;;;;;13.05;3.08;;;15.60;94.00;;;;;;5091295;28;20020;-76
2023/11/30 08:45:49;;;;;;;13.65;3.00;;;15.60;94.10;;;;;;5095806;28;20036;-82
2023/11/30 08:48:15;;;;;;;14.60;3.00;;;15.60;94.20;;;;;;5095623;28;20044;-78
2023/11/30 08:50:41;;;;;;;13.85;3.28;;;15.70;94.30;;;;;;5095186;28;20047;-79
2023/11/30 08:53:07;;;;;;;12.57;3.15;;;15.70;94.40;;;;;;5094937;28;20485;-77
2023/11/30 08:55:32;;;;;;;11.32;3.00;;;15.80;94.70;;;;;;5096372;28;20028;-77
2023/11/30 08:57:58;;;;;;;13.30;3.47;;;15.80;94.40;;;;;;5095121;28;20059;-78
2023/11/30 09:00:24;;;;;;;18.92;3.88;;;15.90;94.50;;;;;;5094471;28;20069;-75
2023/11/30 09:02:50;;;;;;;15.73;4.40;;;15.90;94.50;;;;;;5093840;28;20072;-73
2023/11/30 09:05:18;;;;;;;24.25;4.57;;;15.90;94.60;;;;;;5094298;28;20111;-73
2023/11/30 09:07:44;;;;;;;21.25;4.65;;;16.00;94.70;;;;;;5094578;28;20051;-77
2023/11/30 09:10:09;;;;;;;20.23;3.88;;;16.00;94.90;;;;;;5094301;28;20374;-76
2023/11/30 09:12:36;;;;;;;19.58;5.15;;;16.10;94.80;;;;;;5093942;28;20051;-73
2023/11/30 09:15:08;;;;;;;14.73;3.75;;;16.20;94.90;;;;;;5093845;28;20028;-75
2023/11/30 09:17:34;;;;;;;19.75;4.15;;;16.20;95.00;;;;;;5094550;28;20034;-73
2023/11/30 09:20:01;;;;;;;19.55;4.90;;;16.30;95.00;;;;;;5094651;28;20051;-73
2023/11/30 09:22:28;;;;;;;18.95;4.70;;;16.40;95.00;;;;;;5093221;28;20381;-73
2023/11/30 09:24:53;;;;;;;14.23;4.35;;;16.50;95.10;;;;;;5094135;28;20024;-74
2023/11/30 09:27:20;;;;;;;21.52;4.78;;;16.50;94.90;;;;;;5094219;28;20485;-74
2023/11/30 09:29:45;;;;;;;19.15;4.43;;;16.60;94.90;;;;;;5094240;28;20407;-71
2023/11/30 09:32:11;;;;;;;23.65;4.53;;;16.60;95.00;;;;;;5094077;28;20112;-74
2023/11/30 09:34:37;;;;;;;17.35;4.47;;;16.60;95.00;;;;;;5092633;28;20131;-74
2023/11/30 09:37:03;;;;;;;20.45;4.63;;;16.70;95.10;;;;;;5094070;28;20035;-74
2023/11/30 09:39:28;;;;;;;15.27;4.68;;;16.80;95.00;;;;;;5094055;28;20024;-73
2023/11/30 09:41:57;;;;;;;21.88;4.55;;;16.90;95.00;;;;;;5093819;28;20043;-74
2023/11/30 09:44:23;;;;;;;20.27;4.72;;;17.00;95.00;;;;;;5094113;28;20020;-73
2023/11/30 09:46:49;;;;;;;24.70;5.45;;;17.00;95.00;;;;;;5093800;28;20044;-74
2023/11/30 09:49:15;;;;;;;24.02;5.72;;;17.10;95.10;;;;;;5093987;28;20016;-74
2023/11/30 09:51:43;;;;;;;25.17;5.43;;;17.30;95.10;;;;;;5094194;28;20366;-74
2023/11/30 09:54:10;;;;;;;22.05;5.90;;;17.30;95.10;;;;;;5094067;28;20044;-73
2023/11/30 09:56:35;;;;;;;19.17;5.68;;;17.40;95.10;;;;;;5093879;28;20031;-73
2023/11/30 09:59:01;;;;;;;21.73;5.57;;;17.40;95.10;;;;;;5093965;28;20024;-72
2023/11/30 10:01:27;;;;;;;27.55;6.60;;;17.50;95.20;;;;;;5094157;28;20020;-73
2023/11/30 10:03:52;;;;;;;31.08;6.30;;;17.50;95.20;;;;;;5093694;28;20025;-73
2023/11/30 10:06:18;;;;;;;24.95;6.30;;;17.60;95.30;;;;;;5093226;28;20020;-73
2023/11/30 10:08:44;;;;;;;30.45;6.75;;;17.70;95.20;;;;;;5093536;28;20036;-74
2023/11/30 10:11:11;;;;;;;21.08;5.50;;;17.80;95.20;;;;;;5093778;28;20051;-75
2023/11/30 10:13:37;;;;;;;43.50;7.28;;;17.90;95.20;;;;;;5093379;28;20032;-74
2023/11/30 10:16:06;;;;;;;29.38;6.70;;;17.90;95.30;;;;;;5093624;28;20042;-73
2023/11/30 10:18:34;;;;;;;27.95;7.80;;;18.00;95.30;;;;;;5092165;28;20052;-73
2023/11/30 10:21:00;;;;;;;30.25;7.35;;;18.00;95.30;;;;;;5093285;28;20469;-74
2023/11/30 10:23:26;;;;;;;35.95;7.47;;;18.00;95.40;;;;;;5093110;28;20532;-75
2023/11/30 10:25:55;;;;;;;28.02;7.10;;;18.00;95.50;;;;;;5091892;28;20028;-75
2023/11/30 10:28:22;;;;;;;36.10;8.40;;;17.90;95.50;;;;;;5092676;28;20032;-74
2023/11/30 10:30:53;;;;;;;37.33;8.23;;;17.90;95.60;;;;;;5093401;28;20603;-74
2023/11/30 10:33:22;;;;;;;33.60;6.65;;;17.90;95.70;;;;;;5093343;28;20024;-71
2023/11/30 10:35:53;;;;;;;34.40;7.75;;;17.90;95.70;;;;;;5093582;28;20027;-75
2023/11/30 10:38:31;;;;;;;47.70;7.57;;;17.90;95.70;;;;;;5092957;28;20393;-75
2023/11/30 10:41:04;;;;;;;31.33;7.97;;;18.00;95.70;;;;;;5093075;28;20521;-85
2023/11/30 10:43:32;;;;;;;27.70;6.95;;;18.10;95.90;;;;;;5092631;28;20464;-76
2023/11/30 10:46:02;;;;;;;36.83;7.13;;;18.20;95.70;;;;;;5094250;28;20393;-77
2023/11/30 10:48:29;;;;;;;31.98;7.57;;;18.30;95.70;;;;;;5093456;28;20054;-77
2023/11/30 10:50:56;;;;;;;28.73;7.72;;;18.40;95.50;;;;;;5092497;28;20027;-79
2023/11/30 10:53:56;;;;;;;31.48;7.07;;;18.50;95.60;;;;;;5092745;28;20177;-81
2023/11/30 10:56:22;;;;;;;29.15;6.90;;;18.60;95.40;;;;;;5092871;28;20027;-77
2023/11/30 10:58:48;;;;;;;41.92;8.40;;;18.70;95.30;;;;;;5091264;28;20319;-76
2023/11/30 11:01:14;;;;;;;35.55;7.63;;;18.70;95.30;;;;;;5092849;28;20045;-80
2023/11/30 11:03:55;;;;;;;31.58;6.85;;;18.70;95.30;;;;;;5092297;28;20063;-75
2023/11/30 11:06:25;;;;;;;30.77;7.05;;;18.70;95.30;;;;;;5090716;28;20386;-80
2023/11/30 11:09:02;;;;;;;24.90;7.03;;;18.70;95.40;;;;;;5092244;28;20050;-81
2023/11/30 11:11:30;;;;;;;33.67;7.32;;;18.60;95.40;;;;;;5092370;28;20036;-80
2023/11/30 11:13:56;;;;;;;29.50;7.25;;;18.50;95.50;;;;;;5092465;28;20085;-83
2023/11/30 11:16:36;;;;;;;29.67;6.15;;;18.50;95.50;;;;;;5096829;28;20114;-86
2023/11/30 11:19:05;;;;;;;42.88;7.57;;;18.50;95.50;;;;;;5094393;28;20095;-81
2023/11/30 11:21:38;;;;;;;30.77;7.40;;;18.50;95.60;;;;;;5092878;28;20525;-81
2023/11/30 11:24:05;;;;;;;;;;;18.50;95.50;;;;;;5093188;28;20024;-79
2023/11/30 11:26:46;;;;;;;31.05;7.93;;;18.50;95.40;;;;;;5091364;28;19919;-83
2023/11/30 11:29:15;;;;;;;32.33;7.63;;;18.60;95.40;;;;;;5093422;28;20050;-85
2023/11/30 11:31:42;;;;;;;30.02;8.02;;;18.60;95.30;;;;;;5094034;28;20020;-82
2023/11/30 11:34:08;;;;;;;32.13;7.35;;;18.60;95.40;;;;;;5092164;28;20038;-79
2023/11/30 11:36:37;;;;;;;28.40;7.38;;;18.60;95.40;;;;;;5092274;28;20545;-75
2023/11/30 11:39:06;;;;;;;34.22;7.20;;;18.60;95.40;;;;;;5092113;28;20488;-78
2023/11/30 11:41:32;;;;;;;35.45;7.43;;;18.50;95.40;;;;;;5091869;28;20501;-79
2023/11/30 11:43:58;;;;;;;37.22;8.25;;;18.50;95.50;;;;;;5092270;28;20054;-81
2023/11/30 11:46:23;;;;;;;36.45;7.65;;;18.50;95.50;;;;;;5092112;28;20044;-75
2023/11/30 11:48:49;;;;;;;31.20;7.20;;;18.50;95.50;;;;;;5090020;28;20097;-75
2023/11/30 11:51:15;;;;;;;32.97;7.28;;;18.50;95.50;;;;;;5091706;28;20028;-81
2023/11/30 11:53:41;;;;;;;33.53;6.68;;;18.50;95.40;;;;;;5092017;28;20032;-77
2023/11/30 11:56:10;;;;;;;32.50;7.68;;;18.50;95.50;;;;;;5092375;28;20028;-77
2023/11/30 11:58:41;;;;;;;29.05;6.82;;;18.50;95.40;;;;;;5091632;28;20373;-79
2023/11/30 12:01:07;;;;;;;31.73;7.30;;;18.60;95.50;;;;;;5091904;28;20109;-78
2023/11/30 12:03:43;;;;;;;28.60;7.70;;;18.60;95.40;;;;;;5091930;28;20622;-79
2023/11/30 12:06:09;;;;;;;26.00;6.22;;;18.60;95.40;;;;;;5091743;28;20027;-79
2023/11/30 12:08:35;;;;;;;25.42;6.07;;;18.70;95.30;;;;;;5091588;28;20028;-77
2023/11/30 12:11:01;;;;;;;28.98;6.97;;;18.70;95.20;;;;;;5091697;28;20393;-78
2023/11/30 12:13:27;;;;;;;29.67;7.78;;;18.70;95.10;;;;;;5091605;28;20040;-77
2023/11/30 12:15:54;;;;;;;27.08;6.95;;;18.70;95.10;;;;;;5091944;28;20471;-75
2023/11/30 12:18:20;;;;;;;32.80;6.68;;;18.70;95.20;;;;;;5091696;28;20445;-72
2023/11/30 12:20:47;;;;;;;33.33;6.85;;;18.70;95.20;;;;;;5095742;28;20024;-72
2023/11/30 12:23:13;;;;;;;33.28;7.95;;;18.60;95.20;;;;;;5095245;28;20071;-72
2023/11/30 12:25:38;;;;;;;32.88;7.03;;;18.60;95.20;;;;;;5095449;28;20020;-71
2023/11/30 12:28:05;;;;;;;29.55;6.68;;;18.60;95.20;;;;;;5095477;28;20028;-71
2023/11/30 12:30:30;;;;;;;31.98;7.47;;;18.60;95.10;;;;;;5095511;28;20020;-72
2023/11/30 12:32:56;;;;;;;34.83;7.95;;;18.60;95.40;;;;;;5095469;28;20032;-72
2023/11/30 12:35:22;;;;;;;33.95;7.20;;;18.70;95.10;;;;;;5095631;28;20486;-71
2023/11/30 12:37:48;;;;;;;26.65;6.28;;;18.70;95.10;;;;;;5095244;28;20024;-73